Time;durP1;ratioP1;P1;durP2;ratioP2;P2;SDS_P1;SDS_P2;PMS_P1;PMS_P2;Temp;Humidity;BMP_temperature;BMP_pressure;BME280_temperature;BME280_humidity;BME280_pressure;Samples;Min_cycle;Max_cycle;Signal;HPM_P1;HPM_P2
2023/12/22 00:01:20;;;;;;;14.32;2.42;;;;;;;-148.88;91.58;-17125.47;5058738;28;20390;-79
2023/12/22 00:03:46;;;;;;;15.38;2.03;;;;;;;-148.88;91.62;-17125.47;5058197;28;20024;-78
2023/12/22 00:06:11;;;;;;;13.90;2.08;;;;;;;-148.88;92.42;-17125.47;5060141;28;20023;-79
2023/12/22 00:08:37;;;;;;;10.65;1.75;;;;;;;-148.88;92.36;-17125.47;5058123;28;20056;-79
2023/12/22 00:11:03;;;;;;;14.88;2.17;;;;;;;-148.88;93.52;-17125.47;5058262;28;20025;-78
2023/12/22 00:13:28;;;;;;;14.98;2.63;;;;;;;-148.88;95.07;-17125.47;5059682;28;20025;-79
2023/12/22 00:15:53;;;;;;;12.65;1.52;;;;;;;-148.88;95.63;-17125.47;5046207;22;20073;-85
2023/12/22 00:18:19;;;;;;;14.25;2.00;;;;;;;-148.88;97.59;-17125.47;5018868;28;20026;-84
2023/12/22 00:20:44;;;;;;;19.30;2.80;;;;;;;-148.88;100.00;-17125.47;5033652;28;20014;-85
2023/12/22 00:23:09;;;;;;;12.15;1.70;;;;;;;-148.88;100.00;-17125.47;5019118;28;20048;-84
2023/12/22 00:25:35;;;;;;;14.25;1.90;;;;;;;-148.88;100.00;-17125.47;5019357;28;20021;-85
2023/12/22 00:28:00;;;;;;;19.25;2.42;;;;;;;-148.88;100.00;-17125.47;5019526;28;20068;-84
2023/12/22 00:30:25;;;;;;;17.55;1.95;;;;;;;-148.88;100.00;-17125.47;5036367;28;20116;-85
2023/12/22 00:32:51;;;;;;;11.70;1.65;;;;;;;-148.88;100.00;-17125.47;5022422;28;20030;-85
2023/12/22 00:35:16;;;;;;;12.07;1.95;;;;;;;-148.88;100.00;-17125.47;5020983;28;20442;-84
2023/12/22 00:37:42;;;;;;;9.50;1.08;;;;;;;-148.88;100.00;-17125.47;5015502;28;20037;-84
2023/12/22 00:40:09;;;;;;;13.30;1.50;;;;;;;-148.88;100.00;-17125.47;5015218;28;20022;-84
2023/12/22 00:42:34;;;;;;;7.95;1.35;;;;;;;-148.88;100.00;-17125.47;5016655;28;20022;-84
2023/12/22 00:45:00;;;;;;;5.97;1.25;;;;;;;-148.88;100.00;-17125.47;5015947;28;20030;-84
2023/12/22 00:47:25;;;;;;;5.65;1.02;;;;;;;-148.88;100.00;-17125.47;5037638;28;20032;-84
2023/12/22 00:49:51;;;;;;;8.43;1.33;;;;;;;-148.88;100.00;-17125.47;5021534;28;20030;-84
2023/12/22 00:52:16;;;;;;;5.00;0.85;;;;;;;-148.88;100.00;-17125.47;5021222;28;20077;-85
2023/12/22 00:54:41;;;;;;;7.05;1.20;;;;;;;-148.88;100.00;-17125.47;5037583;28;20022;-85
2023/12/22 00:57:07;;;;;;;9.65;1.15;;;;;;;-148.88;100.00;-17125.47;5023151;28;20113;-84
2023/12/22 00:59:32;;;;;;;11.93;1.50;;;;;;;-148.88;100.00;-17125.47;5022052;28;20030;-84
2023/12/22 01:01:57;;;;;;;10.85;1.65;;;;;;;-148.88;100.00;-17125.47;5020069;28;20018;-85
2023/12/22 01:04:23;;;;;;;5.40;1.30;;;;;;;-148.88;100.00;-17125.47;5020132;28;20396;-84
2023/12/22 01:06:48;;;;;;;16.05;2.25;;;;;;;-148.88;100.00;-17125.47;5020104;28;20400;-84
2023/12/22 01:09:14;;;;;;;12.30;2.25;;;;;;;-148.88;100.00;-17125.47;5020100;28;20440;-85
2023/12/22 01:11:40;;;;;;;9.85;2.22;;;;;;;-148.88;100.00;-17125.47;5018764;28;20493;-84
2023/12/22 01:14:06;;;;;;;8.05;1.60;;;;;;;-148.88;100.00;-17125.47;5015736;28;20053;-84
2023/12/22 01:16:32;;;;;;;18.73;1.95;;;;;;;-148.88;100.00;-17125.47;5015974;28;20029;-84
2023/12/22 01:18:58;;;;;;;5.85;1.40;;;;;;;-148.88;100.00;-17125.47;5031595;28;20033;-84
2023/12/22 01:21:23;;;;;;;5.72;1.15;;;;;;;-148.88;100.00;-17125.47;5016108;28;20064;-84
2023/12/22 01:23:48;;;;;;;5.93;0.98;;;;;;;-148.88;100.00;-17125.47;5014881;28;20026;-84
2023/12/22 01:26:14;;;;;;;11.15;1.33;;;;;;;-148.88;100.00;-17125.47;5015214;28;20051;-84
2023/12/22 01:28:39;;;;;;;3.83;1.00;;;;;;;-148.88;100.00;-17125.47;5016799;28;20469;-84
2023/12/22 01:31:05;;;;;;;7.20;1.05;;;;;;;-148.88;100.00;-17125.47;5016668;28;20080;-84
2023/12/22 01:33:30;;;;;;;5.57;1.15;;;;;;;-148.88;100.00;-17125.47;5032027;28;20473;-84
2023/12/22 01:35:58;;;;;;;8.05;0.95;;;;;;;-148.88;100.00;-17125.47;5032080;28;20018;-84
2023/12/22 01:38:23;;;;;;;6.15;1.10;;;;;;;-148.88;100.00;-17125.47;5034782;28;20032;-84
2023/12/22 01:40:48;;;;;;;6.57;1.05;;;;;;;-148.88;100.00;-17125.47;5037920;28;20046;-85
2023/12/22 01:43:15;;;;;;;8.60;1.30;;;;;;;-148.88;100.00;-17125.47;5018891;28;20025;-85
2023/12/22 01:45:43;;;;;;;8.48;1.45;;;;;;;-148.88;100.00;-17125.47;5020761;28;20427;-84
2023/12/22 01:48:09;;;;;;;14.30;1.45;;;;;;;-148.88;100.00;-17125.47;5014806;28;20061;-84
2023/12/22 01:50:36;;;;;;;4.00;0.98;;;;;;;-148.88;100.00;-17125.47;5015401;28;20072;-84
2023/12/22 01:53:02;;;;;;;6.28;1.25;;;;;;;-148.88;100.00;-17125.47;5014225;28;20116;-84
2023/12/22 01:55:28;;;;;;;5.07;0.90;;;;;;;-148.88;100.00;-17125.47;5031068;28;20107;-84
2023/12/22 01:57:55;;;;;;;9.23;1.58;;;;;;;-148.88;100.00;-17125.47;5016120;28;20522;-84
2023/12/22 02:00:21;;;;;;;6.95;1.27;;;;;;;-148.88;100.00;-17125.47;5016673;28;20021;-84
2023/12/22 02:02:47;;;;;;;5.53;0.93;;;;;;;-148.88;100.00;-17125.47;5016389;28;20029;-84
2023/12/22 02:05:13;;;;;;;10.15;1.58;;;;;;;-148.88;100.00;-17125.47;5016235;28;20123;-83
2023/12/22 02:07:42;;;;;;;18.40;1.65;;;;;;;-148.88;100.00;-17125.47;5031504;28;20049;-85
2023/12/22 02:10:10;;;;;;;8.07;1.50;;;;;;;-148.88;100.00;-17125.47;5014830;28;20041;-84
2023/12/22 02:12:37;;;;;;;10.38;1.80;;;;;;;-148.88;100.00;-17125.47;5018812;28;20030;-84
2023/12/22 02:15:04;;;;;;;8.35;1.70;;;;;;;-148.88;100.00;-17125.47;5034884;28;20021;-84
2023/12/22 02:17:38;;;;;;;9.63;2.22;;;;;;;-148.88;100.00;-17125.47;5035293;28;20030;-85
2023/12/22 02:20:06;;;;;;;11.35;1.92;;;;;;;-148.88;100.00;-17125.47;5020141;28;20028;-84
2023/12/22 02:22:32;;;;;;;15.57;2.65;;;;;;;-148.88;100.00;-17125.47;5034843;28;20489;-84
2023/12/22 02:24:57;;;;;;;8.07;1.77;;;;;;;-148.88;100.00;-17125.47;5029385;28;20036;-83
2023/12/22 02:27:38;;;;;;;3.40;0.88;;;;;;;-148.88;100.00;-17125.47;5029581;28;20022;-84
2023/12/22 02:30:13;;;;;;;16.83;1.63;;;;;;;-148.88;100.00;-17125.47;5015312;28;20029;-83
2023/12/22 02:32:43;;;;;;;4.65;1.25;;;;;;;-148.88;100.00;-17125.47;5013841;28;20030;-84
2023/12/22 02:35:17;;;;;;;6.75;1.98;;;;;;;-148.88;100.00;-17125.47;5014187;28;20076;-84
2023/12/22 02:37:42;;;;;;;;;;;;;;;-148.88;100.00;-17125.47;5014675;28;20029;-84
2023/12/22 02:40:12;;;;;;;6.72;1.48;;;;;;;-148.88;100.00;-17125.47;5015620;28;19909;-84
2023/12/22 02:42:38;;;;;;;12.18;1.83;;;;;;;-148.88;100.00;-17125.47;5014985;28;20021;-84
2023/12/22 02:45:05;;;;;;;6.45;1.17;;;;;;;-148.88;100.00;-17125.47;5016142;28;20037;-84
2023/12/22 02:47:33;;;;;;;6.32;1.20;;;;;;;-148.88;100.00;-17125.47;5017533;28;20124;-84
2023/12/22 02:49:58;;;;;;;12.07;1.98;;;;;;;-148.88;100.00;-17125.47;5018914;28;20030;-84
2023/12/22 02:52:24;;;;;;;11.10;1.48;;;;;;;-148.88;100.00;-17125.47;5018768;28;20029;-84
2023/12/22 02:54:49;;;;;;;11.40;1.90;;;;;;;-148.88;100.00;-17125.47;5019558;28;20037;-84
2023/12/22 02:57:15;;;;;;;15.02;3.55;;;;;;;-148.88;100.00;-17125.47;5034670;28;20485;-84
2023/12/22 02:59:40;;;;;;;7.35;1.60;;;;;;;-148.88;100.00;-17125.47;5015454;28;20107;-84
2023/12/22 03:02:05;;;;;;;14.63;2.22;;;;;;;-148.88;100.00;-17125.47;5012655;28;20507;-84
2023/12/22 03:04:31;;;;;;;10.27;1.60;;;;;;;-148.88;100.00;-17125.47;5014317;28;20396;-84
2023/12/22 03:06:56;;;;;;;12.63;2.25;;;;;;;-148.88;100.00;-17125.47;5030127;28;20021;-84
2023/12/22 03:09:22;;;;;;;13.18;2.30;;;;;;;-148.88;100.00;-17125.47;5014799;28;20153;-84
2023/12/22 03:11:48;;;;;;;12.60;1.67;;;;;;;-148.88;100.00;-17125.47;5016033;28;20026;-84
2023/12/22 03:14:13;;;;;;;20.55;1.88;;;;;;;-148.88;100.00;-17125.47;5014695;28;20034;-84
2023/12/22 03:16:39;;;;;;;12.98;2.08;;;;;;;-148.88;100.00;-17125.47;5014843;28;20036;-84
2023/12/22 03:19:06;;;;;;;12.15;2.00;;;;;;;-148.88;100.00;-17125.47;5016275;28;20022;-84
2023/12/22 03:21:31;;;;;;;15.05;2.08;;;;;;;-148.88;100.00;-17125.47;5021782;28;20081;-84
2023/12/22 03:23:57;;;;;;;16.80;2.00;;;;;;;-148.88;100.00;-17125.47;5017029;28;20057;-84
2023/12/22 03:26:22;;;;;;;20.50;1.85;;;;;;;-148.88;100.00;-17125.47;5018753;28;20038;-84
2023/12/22 03:28:47;;;;;;;19.00;2.25;;;;;;;-148.88;100.00;-17125.47;5033549;28;20017;-84
2023/12/22 03:31:13;;;;;;;18.00;2.40;;;;;;;-148.88;100.00;-17125.47;5018591;28;20049;-84
2023/12/22 03:33:38;;;;;;;22.70;2.30;;;;;;;-148.88;100.00;-17125.47;5023401;28;20022;-84
2023/12/22 03:36:05;;;;;;;13.07;1.38;;;;;;;-148.88;100.00;-17125.47;5037788;23;20073;-77
2023/12/22 03:38:31;;;;;;;11.13;2.47;;;;;;;-148.88;100.00;-17125.47;5036001;28;20091;-77
2023/12/22 03:40:56;;;;;;;7.95;1.65;;;;;;;-148.88;100.00;-17125.47;5018214;28;20383;-78
2023/12/22 03:43:24;;;;;;;7.93;1.50;;;;;;;-148.88;100.00;-17125.47;5016789;28;20113;-77
2023/12/22 03:45:49;;;;;;;14.05;1.90;;;;;;;-148.88;100.00;-17125.47;5016630;28;20021;-78
2023/12/22 03:48:15;;;;;;;8.18;1.50;;;;;;;-148.88;100.00;-17125.47;5018383;28;20109;-78
2023/12/22 03:50:40;;;;;;;10.82;1.65;;;;;;;-148.88;100.00;-17125.47;5018416;28;20113;-78
2023/12/22 03:53:06;;;;;;;16.10;2.42;;;;;;;-148.88;100.00;-17125.47;5018118;28;20057;-78
2023/12/22 03:55:31;;;;;;;14.13;1.98;;;;;;;-148.88;100.00;-17125.47;5018917;28;20072;-78
2023/12/22 03:57:56;;;;;;;11.57;3.00;;;;;;;-148.88;100.00;-17125.47;5019351;28;20103;-78
2023/12/22 04:00:22;;;;;;;7.72;1.33;;;;;;;-148.88;100.00;-17125.47;5018656;28;20038;-78
2023/12/22 04:02:47;;;;;;;12.30;1.73;;;;;;;-148.88;100.00;-17125.47;5018774;28;20057;-78
2023/12/22 04:05:12;;;;;;;11.82;2.28;;;;;;;-148.88;100.00;-17125.47;5018575;28;20030;-78
2023/12/22 04:07:40;;;;;;;16.17;2.38;;;;;;;-148.88;100.00;-17125.47;5018177;28;20049;-78
2023/12/22 04:10:06;;;;;;;10.65;2.55;;;;;;;-148.88;100.00;-17125.47;5019358;28;20022;-78
2023/12/22 04:12:31;;;;;;;9.15;2.03;;;;;;;-148.88;100.00;-17125.47;5017738;28;20438;-77
2023/12/22 04:14:57;;;;;;;10.07;1.35;;;;;;;-148.88;100.00;-17125.47;5018411;28;20026;-78
2023/12/22 04:17:22;;;;;;;22.80;1.75;;;;;;;-148.88;100.00;-17125.47;5018088;28;20021;-78
2023/12/22 04:19:47;;;;;;;9.75;1.45;;;;;;;-148.88;100.00;-17125.47;5017830;28;20065;-78
2023/12/22 04:22:13;;;;;;;15.93;2.70;;;;;;;-148.88;100.00;-17125.47;5017799;28;20024;-78
2023/12/22 04:24:38;;;;;;;6.13;1.25;;;;;;;-148.88;100.00;-17125.47;5017803;28;20030;-77
2023/12/22 04:27:04;;;;;;;15.02;2.33;;;;;;;-148.88;100.00;-17125.47;5017605;28;20113;-78
2023/12/22 04:29:29;;;;;;;6.13;0.98;;;;;;;-148.88;100.00;-17125.47;5017518;28;20030;-78
2023/12/22 04:31:55;;;;;;;11.40;1.83;;;;;;;-148.88;100.00;-17125.47;5017697;28;20022;-78
2023/12/22 04:34:20;;;;;;;14.60;2.22;;;;;;;-148.88;100.00;-17125.47;5018677;28;20431;-78
2023/12/22 04:36:46;;;;;;;10.75;1.48;;;;;;;-148.88;100.00;-17125.47;5018656;28;20431;-78
2023/12/22 04:39:12;;;;;;;7.80;1.13;;;;;;;-148.88;100.00;-17125.47;5018648;28;20029;-78
2023/12/22 04:41:37;;;;;;;11.95;1.10;;;;;;;-148.88;100.00;-17125.47;5018194;28;20026;-78
2023/12/22 04:44:03;;;;;;;10.80;2.45;;;;;;;-148.88;100.00;-17125.47;5018133;28;20021;-78
2023/12/22 04:46:31;;;;;;;10.13;1.17;;;;;;;-148.88;100.00;-17125.47;5016886;28;20029;-78
2023/12/22 04:48:57;;;;;;;5.85;1.55;;;;;;;-148.88;100.00;-17125.47;5017119;28;20033;-77
2023/12/22 04:51:23;;;;;;;6.05;1.35;;;;;;;-148.88;100.00;-17125.47;5015481;28;20025;-78
2023/12/22 04:53:48;;;;;;;5.68;0.93;;;;;;;-148.88;100.00;-17125.47;5017400;28;20030;-78
2023/12/22 04:56:14;;;;;;;11.32;1.33;;;;;;;-148.88;100.00;-17125.47;5017460;28;20090;-78
2023/12/22 04:58:39;;;;;;;8.68;1.00;;;;;;;-148.88;100.00;-17125.47;5017693;28;20033;-78
2023/12/22 05:01:04;;;;;;;9.50;1.60;;;;;;;-148.88;100.00;-17125.47;5015717;28;20044;-78
2023/12/22 05:03:30;;;;;;;12.60;2.97;;;;;;;-148.88;100.00;-17125.47;5017066;28;20057;-78
2023/12/22 05:05:55;;;;;;;6.00;1.40;;;;;;;-148.88;100.00;-17125.47;5017447;28;20415;-78
2023/12/22 05:08:20;;;;;;;7.97;1.38;;;;;;;-148.88;100.00;-17125.47;5017568;28;20102;-78
2023/12/22 05:10:46;;;;;;;5.75;1.08;;;;;;;-148.88;100.00;-17125.47;5017658;28;20041;-78
2023/12/22 05:13:11;;;;;;;8.13;1.92;;;;;;;-148.88;100.00;-17125.47;5017322;28;20053;-78
2023/12/22 05:15:36;;;;;;;2.45;0.52;;;;;;;-148.88;100.00;-17125.47;5017841;28;20141;-78
2023/12/22 05:18:02;;;;;;;7.55;1.08;;;;;;;-148.88;100.00;-17125.47;5016506;28;20022;-78
2023/12/22 05:20:28;;;;;;;4.82;0.85;;;;;;;-148.88;100.00;-17125.47;5017987;28;20018;-78
2023/12/22 05:22:54;;;;;;;4.93;0.85;;;;;;;-148.88;100.00;-17125.47;5016395;28;20018;-78
2023/12/22 05:25:19;;;;;;;3.30;0.93;;;;;;;-148.88;100.00;-17125.47;5016675;28;20029;-78
2023/12/22 05:27:44;;;;;;;7.45;1.10;;;;;;;-148.88;100.00;-17125.47;5016387;28;20030;-78
2023/12/22 05:30:11;;;;;;;5.10;1.00;;;;;;;-148.88;100.00;-17125.47;5015096;28;20079;-78
2023/12/22 05:32:36;;;;;;;5.40;1.23;;;;;;;-148.88;100.00;-17125.47;5014837;28;20025;-78
2023/12/22 05:35:02;;;;;;;8.57;0.93;;;;;;;-148.88;100.00;-17125.47;5015437;28;20072;-78
2023/12/22 05:37:27;;;;;;;7.30;1.45;;;;;;;-148.88;100.00;-17125.47;5016493;28;20045;-78
2023/12/22 05:39:52;;;;;;;3.08;0.50;;;;;;;-148.88;100.00;-17125.47;5016745;28;20022;-78
2023/12/22 05:42:18;;;;;;;3.97;0.65;;;;;;;-148.88;100.00;-17125.47;5017068;28;20105;-78
2023/12/22 05:44:46;;;;;;;5.20;0.70;;;;;;;-148.88;100.00;-17125.47;5016965;28;20160;-78
2023/12/22 05:47:13;;;;;;;3.53;0.50;;;;;;;-148.88;100.00;-17125.47;5016765;28;20033;-78
2023/12/22 05:49:39;;;;;;;2.75;0.73;;;;;;;-148.88;100.00;-17125.47;5016981;28;20033;-78
2023/12/22 05:52:05;;;;;;;9.23;1.42;;;;;;;-148.88;100.00;-17125.47;5016473;28;20022;-78
2023/12/22 05:54:30;;;;;;;6.25;0.90;;;;;;;-148.88;100.00;-17125.47;5016138;28;20076;-78
2023/12/22 05:56:55;;;;;;;8.38;0.95;;;;;;;-148.88;100.00;-17125.47;5017027;28;20498;-78
2023/12/22 05:59:21;;;;;;;3.70;1.08;;;;;;;-148.88;100.00;-17125.47;5016549;28;20018;-78
2023/12/22 06:01:46;;;;;;;10.88;1.00;;;;;;;-148.88;100.00;-17125.47;5014181;28;20029;-78
2023/12/22 06:04:11;;;;;;;7.05;0.70;;;;;;;-148.88;100.00;-17125.47;5016142;28;20026;-78
2023/12/22 06:06:38;;;;;;;7.65;1.38;;;;;;;-148.88;100.00;-17125.47;5016073;28;20057;-78
2023/12/22 06:09:04;;;;;;;2.13;0.80;;;;;;;-148.88;100.00;-17125.47;5015608;28;20034;-78
2023/12/22 06:11:30;;;;;;;8.07;1.80;;;;;;;-148.88;100.00;-17125.47;5015948;28;20498;-78
2023/12/22 06:13:56;;;;;;;10.63;1.13;;;;;;;-148.88;100.00;-17125.47;5015932;28;20033;-78
2023/12/22 06:16:22;;;;;;;7.45;0.98;;;;;;;-148.88;100.00;-17125.47;5017385;28;20025;-79
2023/12/22 06:18:47;;;;;;;7.07;1.17;;;;;;;-148.88;100.00;-17125.47;5017125;28;20034;-78
2023/12/22 06:21:13;;;;;;;11.50;1.73;;;;;;;-148.88;100.00;-17125.47;5016877;28;20471;-78
2023/12/22 06:23:39;;;;;;;19.75;1.30;;;;;;;-148.88;100.00;-17125.47;5015570;28;20490;-79
2023/12/22 06:26:09;;;;;;;3.90;0.90;;;;;;;-148.88;100.00;-17125.47;5019157;28;20029;-81
2023/12/22 06:28:36;;;;;;;7.88;1.63;;;;;;;-148.88;100.00;-17125.47;5018859;28;20052;-81
2023/12/22 06:31:01;;;;;;;4.15;1.20;;;;;;;-148.88;100.00;-17125.47;5017883;28;20080;-80
2023/12/22 06:33:26;;;;;;;9.35;0.93;;;;;;;-148.88;100.00;-17125.47;5017341;28;20030;-80
2023/12/22 06:35:53;;;;;;;8.35;1.23;;;;;;;-148.88;100.00;-17125.47;5017678;28;20392;-81
2023/12/22 06:38:19;;;;;;;17.27;2.47;;;;;;;-148.88;100.00;-17125.47;5016181;28;20029;-81
2023/12/22 06:40:46;;;;;;;5.95;1.38;;;;;;;-148.88;100.00;-17125.47;5018098;28;20102;-80
2023/12/22 06:43:11;;;;;;;13.90;1.73;;;;;;;-148.88;100.00;-17125.47;5016433;28;20044;-81
2023/12/22 06:45:37;;;;;;;10.45;1.23;;;;;;;-148.88;100.00;-17125.47;5016465;28;20113;-81
2023/12/22 06:48:02;;;;;;;6.53;0.98;;;;;;;-148.88;100.00;-17125.47;5018268;28;20403;-81
2023/12/22 06:50:28;;;;;;;7.45;1.55;;;;;;;-148.88;100.00;-17125.47;5015518;28;20083;-80
2023/12/22 06:52:53;;;;;;;7.80;1.55;;;;;;;-148.88;100.00;-17125.47;5014864;28;20091;-80
2023/12/22 06:55:19;;;;;;;12.20;1.70;;;;;;;-148.88;100.00;-17125.47;5015981;28;20091;-81
2023/12/22 06:57:44;;;;;;;8.85;1.13;;;;;;;-148.88;100.00;-17125.47;5014285;28;20033;-81
2023/12/22 07:00:10;;;;;;;9.70;1.38;;;;;;;-148.88;100.00;-17125.47;5016041;28;20037;-81
2023/12/22 07:02:35;;;;;;;12.73;1.52;;;;;;;-148.88;100.00;-17125.47;5015192;28;20026;-80
2023/12/22 07:05:10;;;;;;;13.98;2.33;;;;;;;-148.88;100.00;-17125.47;5014467;28;20033;-80
2023/12/22 07:07:36;;;;;;;10.95;1.95;;;;;;;-148.88;100.00;-17125.47;5014357;28;20076;-80
2023/12/22 07:10:01;;;;;;;10.00;1.85;;;;;;;-148.88;100.00;-17125.47;5013102;28;20029;-80
2023/12/22 07:12:27;;;;;;;9.95;1.58;;;;;;;-148.88;100.00;-17125.47;5017210;28;20475;-81
2023/12/22 07:14:53;;;;;;;16.35;2.08;;;;;;;-148.88;100.00;-17125.47;5018162;28;20050;-81
2023/12/22 07:17:19;;;;;;;6.57;1.60;;;;;;;-148.88;100.00;-17125.47;5018130;28;20494;-80
2023/12/22 07:19:44;;;;;;;5.90;1.02;;;;;;;-148.88;100.00;-17125.47;5017791;28;20101;-81
2023/12/22 07:22:10;;;;;;;9.63;1.10;;;;;;;-148.88;100.00;-17125.47;5017505;28;20064;-81
2023/12/22 07:24:35;;;;;;;9.48;1.20;;;;;;;-148.88;100.00;-17125.47;5015086;28;20033;-80
2023/12/22 07:27:03;;;;;;;12.15;2.25;;;;;;;-148.88;100.00;-17125.47;5014656;28;20494;-80
2023/12/22 07:29:29;;;;;;;10.43;1.45;;;;;;;-148.88;100.00;-17125.47;5013184;28;20053;-80
2023/12/22 07:31:54;;;;;;;12.32;1.40;;;;;;;-148.88;100.00;-17125.47;5014381;28;20053;-79
2023/12/22 07:34:22;;;;;;;8.80;1.60;;;;;;;-148.88;100.00;-17125.47;5013904;28;20026;-80
2023/12/22 07:36:47;;;;;;;7.00;1.63;;;;;;;-148.88;100.00;-17125.47;5013896;28;20109;-80
2023/12/22 07:39:12;;;;;;;13.48;2.30;;;;;;;-148.88;100.00;-17125.47;5012845;28;20129;-80
2023/12/22 07:41:38;;;;;;;9.43;1.75;;;;;;;-148.88;100.00;-17125.47;5014005;28;20021;-80
2023/12/22 07:44:04;;;;;;;8.90;1.27;;;;;;;-148.88;100.00;-17125.47;5012650;28;20046;-80
2023/12/22 07:46:29;;;;;;;7.25;1.30;;;;;;;-148.88;100.00;-17125.47;5013365;28;20058;-80
2023/12/22 07:48:54;;;;;;;11.80;1.42;;;;;;;-148.88;100.00;-17125.47;5017069;28;20045;-81
2023/12/22 07:51:20;;;;;;;18.38;2.15;;;;;;;-148.88;100.00;-17125.47;5017799;28;20491;-81
2023/12/22 07:53:45;;;;;;;8.45;1.58;;;;;;;-148.88;100.00;-17125.47;5016346;28;20494;-81
2023/12/22 07:56:11;;;;;;;9.15;1.45;;;;;;;-148.88;100.00;-17125.47;5017524;28;20391;-81
2023/12/22 07:58:37;;;;;;;10.10;2.55;;;;;;;-148.88;100.00;-17125.47;5016101;28;20080;-80
2023/12/22 08:01:04;;;;;;;10.23;1.75;;;;;;;-148.88;100.00;-17125.47;5012624;28;20080;-79
2023/12/22 08:03:29;;;;;;;12.13;1.60;;;;;;;-148.88;100.00;-17125.47;5012553;28;20040;-80
2023/12/22 08:05:55;;;;;;;7.00;1.73;;;;;;;-148.88;100.00;-17125.47;5014611;28;20025;-80
2023/12/22 08:08:21;;;;;;;8.68;1.30;;;;;;;-148.88;100.00;-17125.47;5014299;28;20022;-80
2023/12/22 08:10:46;;;;;;;10.80;1.38;;;;;;;-148.88;100.00;-17125.47;5014222;28;20141;-80
2023/12/22 08:13:11;;;;;;;8.80;1.85;;;;;;;-148.88;100.00;-17125.47;5013779;28;20029;-80
2023/12/22 08:15:37;;;;;;;14.02;2.30;;;;;;;-148.88;100.00;-17125.47;5016364;28;20022;-77
2023/12/22 08:18:03;;;;;;;9.07;1.38;;;;;;;-148.88;100.00;-17125.47;5019082;28;20483;-78
2023/12/22 08:20:28;;;;;;;11.40;1.67;;;;;;;-148.88;100.00;-17125.47;5021120;28;20030;-78
2023/12/22 08:22:54;;;;;;;9.50;1.38;;;;;;;-148.88;100.00;-17125.47;5020547;28;20050;-79
2023/12/22 08:25:20;;;;;;;5.13;1.20;;;;;;;-148.88;100.00;-17125.47;5020077;28;20409;-79
2023/12/22 08:27:45;;;;;;;8.63;1.60;;;;;;;-148.88;100.00;-17125.47;5019777;28;20490;-79
2023/12/22 08:30:11;;;;;;;13.45;1.45;;;;;;;-148.88;100.00;-17125.47;5019124;28;20076;-79
2023/12/22 08:32:37;;;;;;;9.23;1.38;;;;;;;-148.88;100.00;-17125.47;5019455;28;20021;-79
2023/12/22 08:35:04;;;;;;;7.05;1.92;;;;;;;-148.88;100.00;-17125.47;5019770;28;20104;-78
2023/12/22 08:37:30;;;;;;;10.90;1.27;;;;;;;-148.88;100.00;-17125.47;5018427;28;20079;-79
2023/12/22 08:39:55;;;;;;;4.82;1.20;;;;;;;-148.88;100.00;-17125.47;5019866;28;20145;-78
2023/12/22 08:42:22;;;;;;;6.20;1.50;;;;;;;-148.88;100.00;-17125.47;5018967;28;20018;-78
2023/12/22 08:44:48;;;;;;;6.13;1.88;;;;;;;-148.88;100.00;-17125.47;5018524;28;20025;-78
2023/12/22 08:47:13;;;;;;;4.78;1.38;;;;;;;-148.88;100.00;-17125.47;5021122;28;20030;-78
2023/12/22 08:49:38;;;;;;;18.95;1.95;;;;;;;-148.88;100.00;-17125.47;5022049;28;20405;-78
2023/12/22 08:52:04;;;;;;;7.45;1.08;;;;;;;-148.88;100.00;-17125.47;5021768;28;20050;-78
2023/12/22 08:54:30;;;;;;;12.93;1.70;;;;;;;-148.88;100.00;-17125.47;5021078;28;20026;-78
2023/12/22 08:56:55;;;;;;;8.85;1.50;;;;;;;-148.88;100.00;-17125.47;5021607;28;20026;-78
2023/12/22 08:59:21;;;;;;;9.15;1.48;;;;;;;-148.88;100.00;-17125.47;5018994;28;20021;-79
2023/12/22 09:01:46;;;;;;;7.15;1.30;;;;;;;-148.88;100.00;-17125.47;5016871;28;20116;-79
2023/12/22 09:04:12;;;;;;;15.77;2.25;;;;;;;-148.88;100.00;-17125.47;5019070;28;20022;-79
2023/12/22 09:06:37;;;;;;;10.43;2.10;;;;;;;-148.88;100.00;-17125.47;5019075;28;20408;-79
2023/12/22 09:09:07;;;;;;;6.93;1.48;;;;;;;-148.88;100.00;-17125.47;5018939;28;20041;-79
2023/12/22 09:11:32;;;;;;;7.45;1.90;;;;;;;-148.88;100.00;-17125.47;5020238;28;20014;-79
2023/12/22 09:13:58;;;;;;;11.63;1.80;;;;;;;-148.88;100.00;-17125.47;5019040;28;20056;-79
2023/12/22 09:16:26;;;;;;;14.13;1.73;;;;;;;-148.88;100.00;-17125.47;5018792;28;20398;-78
2023/12/22 09:18:52;;;;;;;11.98;1.50;;;;;;;-148.88;100.00;-17125.47;5019144;28;20383;-78
2023/12/22 09:21:18;;;;;;;6.03;1.40;;;;;;;-148.88;100.00;-17125.47;5019234;28;20463;-79
2023/12/22 09:23:46;;;;;;;9.40;2.08;;;;;;;-148.88;100.00;-17125.47;5019284;28;20025;-78
2023/12/22 09:26:15;;;;;;;11.23;1.13;;;;;;;-148.88;100.00;-17125.47;5018974;28;20026;-78
2023/12/22 09:28:41;;;;;;;12.55;1.98;;;;;;;-148.88;100.00;-17125.47;5018572;28;20032;-78
2023/12/22 09:31:09;;;;;;;8.02;1.77;;;;;;;-148.88;100.00;-17125.47;5019438;28;20034;-78
2023/12/22 09:33:35;;;;;;;15.88;2.00;;;;;;;-148.88;100.00;-17125.47;5018382;28;20026;-79
2023/12/22 09:36:01;;;;;;;9.50;1.67;;;;;;;-148.88;100.00;-17125.47;5018989;28;20394;-78
2023/12/22 09:38:27;;;;;;;8.23;1.23;;;;;;;-148.88;100.00;-17125.47;5019586;28;20021;-79
2023/12/22 09:40:53;;;;;;;10.77;2.50;;;;;;;-148.88;100.00;-17125.47;5017712;28;20014;-79
2023/12/22 09:43:19;;;;;;;9.50;1.70;;;;;;;-148.88;100.00;-17125.47;5018760;28;20022;-79
2023/12/22 09:45:55;;;;;;;20.80;3.72;;;;;;;-148.88;100.00;-17125.47;5017488;28;20087;-78
2023/12/22 09:48:27;;;;;;;5.68;1.23;;;;;;;-148.88;100.00;-17125.47;5016782;28;20030;-78
2023/12/22 09:50:52;;;;;;;10.18;1.48;;;;;;;-148.88;100.00;-17125.47;5017689;28;20033;-78
2023/12/22 09:53:19;;;;;;;10.38;1.55;;;;;;;-148.88;100.00;-17125.47;5016110;28;20022;-77
2023/12/22 09:55:46;;;;;;;5.95;1.20;;;;;;;-148.88;100.00;-17125.47;5019266;28;20061;-78
2023/12/22 09:58:16;;;;;;;4.75;1.23;;;;;;;-148.88;100.00;-17125.47;5018518;28;20487;-78
2023/12/22 10:00:42;;;;;;;7.05;1.15;;;;;;;-148.88;100.00;-17125.47;5018327;28;20094;-78
2023/12/22 10:03:10;;;;;;;13.80;1.20;;;;;;;-148.88;100.00;-17125.47;5017422;28;20075;-78
2023/12/22 10:05:36;;;;;;;11.40;1.52;;;;;;;-148.88;100.00;-17125.47;5020207;28;20022;-78
2023/12/22 10:08:04;;;;;;;7.78;1.65;;;;;;;-148.88;100.00;-17125.47;5019475;28;20022;-78
2023/12/22 10:10:30;;;;;;;15.43;1.98;;;;;;;-148.88;100.00;-17125.47;5018169;28;20033;-78
2023/12/22 10:12:56;;;;;;;9.02;1.27;;;;;;;-148.88;100.00;-17125.47;5018940;28;20381;-79
2023/12/22 10:15:23;;;;;;;8.98;1.00;;;;;;;-148.88;100.00;-17125.47;5019563;28;20026;-79
2023/12/22 10:17:53;;;;;;;5.57;0.98;;;;;;;-148.88;100.00;-17125.47;5019424;28;20033;-79
2023/12/22 10:20:22;;;;;;;7.95;1.42;;;;;;;-148.88;100.00;-17125.47;5019632;28;20046;-78
2023/12/22 10:22:47;;;;;;;3.97;0.85;;;;;;;-148.88;100.00;-17125.47;5015636;28;20028;-78
2023/12/22 10:25:20;;;;;;;6.57;1.48;;;;;;;-148.88;100.00;-17125.47;5016310;28;20045;-79
2023/12/22 10:27:45;;;;;;;4.03;0.85;;;;;;;-148.88;100.00;-17125.47;5015924;28;20029;-78
2023/12/22 10:30:11;;;;;;;4.15;0.73;;;;;;;-148.88;100.00;-17125.47;5015068;28;20434;-79
2023/12/22 10:32:42;;;;;;;6.45;0.95;;;;;;;-148.88;100.00;-17125.47;5014383;28;20054;-79
2023/12/22 10:35:08;;;;;;;3.92;0.80;;;;;;;-148.88;100.00;-17125.47;5016672;28;20021;-79
2023/12/22 10:37:34;;;;;;;3.97;0.93;;;;;;;-148.88;100.00;-17125.47;5016466;28;20057;-79
2023/12/22 10:39:59;;;;;;;7.75;1.10;;;;;;;-148.88;100.00;-17125.47;5016649;28;20029;-79
2023/12/22 10:42:25;;;;;;;6.15;1.08;;;;;;;-148.88;100.00;-17125.47;5016135;28;20277;-80
2023/12/22 10:44:53;;;;;;;4.22;0.70;;;;;;;-148.88;100.00;-17125.47;5015297;28;20041;-80
2023/12/22 10:47:18;;;;;;;5.25;1.42;;;;;;;-148.88;100.00;-17125.47;5019121;28;20028;-80
2023/12/22 10:49:46;;;;;;;6.68;1.13;;;;;;;-148.88;100.00;-17125.47;5019980;28;20022;-79
2023/12/22 10:52:18;;;;;;;5.25;0.80;;;;;;;-148.88;100.00;-17125.47;5017964;28;20022;-79
2023/12/22 10:54:44;;;;;;;5.30;0.93;;;;;;;-148.88;100.00;-17125.47;5019887;28;20105;-80